Terminal Aerodrome Forecast
Issued by NWS

Home | Current Version | Previous Version | Text Only | Print | Product List | Glossary On
Versions: 1 2 3 4 5 6 7 8 9 10 11 12 13 14 15 16 17 18 19 20 21 22 23 24 25 26
000
FTUS45 KGJT 300520
TAFEGE
TAF
KEGE 300520Z 3006/3106 19009KT P6SM VCSH OVC060
     FM301200 VRB03KT P6SM VCSH SCT060 BKN090
     FM302000 27007KT P6SM -SHRA SCT060 BKN100
     FM310400 27003KT P6SM -RA OVC050
      AMD LTD TO CLD VIS AND WIND TIL 301300=

USA.gov is the U.S. government's official web portal to all federal, state and local government web resources and services.